sensor_id;sensor_type;location;lat;lon;timestamp;P1;durP1;ratioP1;P2;durP2;ratioP2
10461;SDS011;5278;42.656;23.374;2022-12-07T00:00:51;33.57;;;18.23;;
10461;SDS011;5278;42.656;23.374;2022-12-07T00:03:18;33.00;;;17.00;;
10461;SDS011;5278;42.656;23.374;2022-12-07T00:05:47;31.33;;;18.07;;
10461;SDS011;5278;42.656;23.374;2022-12-07T00:08:14;29.00;;;17.43;;
10461;SDS011;5278;42.656;23.374;2022-12-07T00:10:40;25.17;;;16.00;;
10461;SDS011;5278;42.656;23.374;2022-12-07T00:13:08;36.73;;;17.67;;
10461;SDS011;5278;42.656;23.374;2022-12-07T00:15:35;27.27;;;17.27;;
10461;SDS011;5278;42.656;23.374;2022-12-07T00:18:01;28.97;;;18.63;;
10461;SDS011;5278;42.656;23.374;2022-12-07T00:20:28;27.87;;;16.90;;
10461;SDS011;5278;42.656;23.374;2022-12-07T00:22:57;31.70;;;19.73;;
10461;SDS011;5278;42.656;23.374;2022-12-07T00:25:24;35.47;;;19.43;;
10461;SDS011;5278;42.656;23.374;2022-12-07T00:27:51;28.27;;;16.83;;
10461;SDS011;5278;42.656;23.374;2022-12-07T00:30:20;25.80;;;17.40;;
10461;SDS011;5278;42.656;23.374;2022-12-07T00:32:47;27.73;;;17.37;;
10461;SDS011;5278;42.656;23.374;2022-12-07T00:35:14;27.90;;;17.77;;
10461;SDS011;5278;42.656;23.374;2022-12-07T00:37:41;32.57;;;18.87;;
10461;SDS011;5278;42.656;23.374;2022-12-07T00:40:11;25.57;;;17.40;;
10461;SDS011;5278;42.656;23.374;2022-12-07T00:42:38;31.00;;;19.80;;
10461;SDS011;5278;42.656;23.374;2022-12-07T00:45:06;27.53;;;16.40;;
10461;SDS011;5278;42.656;23.374;2022-12-07T00:47:34;29.43;;;17.17;;
10461;SDS011;5278;42.656;23.374;2022-12-07T00:50:01;26.80;;;16.67;;
10461;SDS011;5278;42.656;23.374;2022-12-07T00:52:29;24.53;;;17.13;;
10461;SDS011;5278;42.656;23.374;2022-12-07T00:54:56;29.07;;;15.60;;
10461;SDS011;5278;42.656;23.374;2022-12-07T00:57:26;25.47;;;16.03;;
10461;SDS011;5278;42.656;23.374;2022-12-07T00:59:52;24.53;;;16.73;;
10461;SDS011;5278;42.656;23.374;2022-12-07T01:02:22;25.37;;;15.57;;
10461;SDS011;5278;42.656;23.374;2022-12-07T01:04:49;23.77;;;15.73;;
10461;SDS011;5278;42.656;23.374;2022-12-07T01:07:16;24.27;;;16.50;;
10461;SDS011;5278;42.656;23.374;2022-12-07T01:09:43;31.07;;;17.17;;
10461;SDS011;5278;42.656;23.374;2022-12-07T01:12:10;25.97;;;16.27;;
10461;SDS011;5278;42.656;23.374;2022-12-07T01:14:38;25.87;;;15.03;;
10461;SDS011;5278;42.656;23.374;2022-12-07T01:17:05;25.73;;;15.30;;
10461;SDS011;5278;42.656;23.374;2022-12-07T01:19:32;26.30;;;15.47;;
10461;SDS011;5278;42.656;23.374;2022-12-07T01:21:59;24.03;;;14.97;;
10461;SDS011;5278;42.656;23.374;2022-12-07T01:24:26;24.60;;;14.80;;
10461;SDS011;5278;42.656;23.374;2022-12-07T01:26:53;26.47;;;16.60;;
10461;SDS011;5278;42.656;23.374;2022-12-07T01:29:20;26.83;;;15.70;;
10461;SDS011;5278;42.656;23.374;2022-12-07T01:31:49;26.67;;;17.73;;
10461;SDS011;5278;42.656;23.374;2022-12-07T01:34:17;34.23;;;19.83;;
10461;SDS011;5278;42.656;23.374;2022-12-07T01:36:44;35.63;;;21.03;;
10461;SDS011;5278;42.656;23.374;2022-12-07T01:39:12;31.63;;;19.37;;
10461;SDS011;5278;42.656;23.374;2022-12-07T01:41:40;32.87;;;20.43;;
10461;SDS011;5278;42.656;23.374;2022-12-07T01:44:21;31.70;;;20.23;;
10461;SDS011;5278;42.656;23.374;2022-12-07T01:46:51;33.37;;;20.57;;
10461;SDS011;5278;42.656;23.374;2022-12-07T01:49:24;35.27;;;20.13;;
10461;SDS011;5278;42.656;23.374;2022-12-07T01:51:57;33.47;;;19.93;;
10461;SDS011;5278;42.656;23.374;2022-12-07T01:54:30;36.03;;;21.07;;
10461;SDS011;5278;42.656;23.374;2022-12-07T01:56:59;36.93;;;20.47;;
10461;SDS011;5278;42.656;23.374;2022-12-07T01:59:26;36.63;;;20.80;;
10461;SDS011;5278;42.656;23.374;2022-12-07T02:01:57;32.53;;;20.63;;
10461;SDS011;5278;42.656;23.374;2022-12-07T02:04:24;33.60;;;20.63;;
10461;SDS011;5278;42.656;23.374;2022-12-07T02:06:51;27.63;;;20.10;;
10461;SDS011;5278;42.656;23.374;2022-12-07T02:09:20;33.40;;;19.20;;
10461;SDS011;5278;42.656;23.374;2022-12-07T02:11:47;35.17;;;21.40;;
10461;SDS011;5278;42.656;23.374;2022-12-07T02:14:15;37.80;;;21.20;;
10461;SDS011;5278;42.656;23.374;2022-12-07T02:16:47;34.37;;;20.43;;
10461;SDS011;5278;42.656;23.374;2022-12-07T02:19:29;35.13;;;22.93;;
10461;SDS011;5278;42.656;23.374;2022-12-07T02:22:28;33.40;;;21.93;;
10461;SDS011;5278;42.656;23.374;2022-12-07T02:25:13;36.93;;;22.37;;
10461;SDS011;5278;42.656;23.374;2022-12-07T02:27:56;34.13;;;21.63;;
10461;SDS011;5278;42.656;23.374;2022-12-07T02:30:34;42.30;;;23.97;;
10461;SDS011;5278;42.656;23.374;2022-12-07T02:33:07;38.13;;;21.73;;
10461;SDS011;5278;42.656;23.374;2022-12-07T02:35:41;41.83;;;23.37;;
10461;SDS011;5278;42.656;23.374;2022-12-07T02:38:12;37.07;;;22.53;;
10461;SDS011;5278;42.656;23.374;2022-12-07T02:40:43;39.73;;;23.07;;
10461;SDS011;5278;42.656;23.374;2022-12-07T02:43:16;39.43;;;22.63;;
10461;SDS011;5278;42.656;23.374;2022-12-07T02:45:48;35.60;;;22.93;;
10461;SDS011;5278;42.656;23.374;2022-12-07T02:48:18;37.83;;;21.43;;
10461;SDS011;5278;42.656;23.374;2022-12-07T02:50:48;37.13;;;22.03;;
10461;SDS011;5278;42.656;23.374;2022-12-07T02:53:30;34.93;;;22.03;;
10461;SDS011;5278;42.656;23.374;2022-12-07T02:55:59;37.93;;;23.00;;
10461;SDS011;5278;42.656;23.374;2022-12-07T02:58:37;39.87;;;22.33;;
10461;SDS011;5278;42.656;23.374;2022-12-07T03:01:16;42.20;;;24.33;;
10461;SDS011;5278;42.656;23.374;2022-12-07T03:03:57;36.17;;;22.37;;
10461;SDS011;5278;42.656;23.374;2022-12-07T03:06:34;38.30;;;22.90;;
10461;SDS011;5278;42.656;23.374;2022-12-07T03:09:07;37.60;;;23.47;;
10461;SDS011;5278;42.656;23.374;2022-12-07T03:11:42;35.73;;;20.97;;
10461;SDS011;5278;42.656;23.374;2022-12-07T03:14:15;34.83;;;22.80;;
10461;SDS011;5278;42.656;23.374;2022-12-07T03:16:47;37.00;;;21.90;;
10461;SDS011;5278;42.656;23.374;2022-12-07T03:19:20;36.77;;;22.57;;
10461;SDS011;5278;42.656;23.374;2022-12-07T03:21:51;45.67;;;21.70;;
10461;SDS011;5278;42.656;23.374;2022-12-07T03:24:24;42.73;;;21.80;;
10461;SDS011;5278;42.656;23.374;2022-12-07T03:26:55;36.53;;;22.13;;
10461;SDS011;5278;42.656;23.374;2022-12-07T03:29:30;33.07;;;20.87;;
10461;SDS011;5278;42.656;23.374;2022-12-07T03:32:02;36.90;;;21.30;;
10461;SDS011;5278;42.656;23.374;2022-12-07T03:34:36;39.00;;;21.73;;
10461;SDS011;5278;42.656;23.374;2022-12-07T03:37:08;40.73;;;21.10;;
10461;SDS011;5278;42.656;23.374;2022-12-07T03:39:39;39.80;;;22.40;;
10461;SDS011;5278;42.656;23.374;2022-12-07T03:42:11;38.73;;;23.30;;
10461;SDS011;5278;42.656;23.374;2022-12-07T03:44:39;39.63;;;22.17;;
10461;SDS011;5278;42.656;23.374;2022-12-07T03:47:11;40.90;;;22.53;;
10461;SDS011;5278;42.656;23.374;2022-12-07T03:49:41;36.83;;;22.57;;
10461;SDS011;5278;42.656;23.374;2022-12-07T03:52:12;34.63;;;22.57;;
10461;SDS011;5278;42.656;23.374;2022-12-07T03:54:49;31.43;;;21.60;;
10461;SDS011;5278;42.656;23.374;2022-12-07T03:57:23;32.57;;;20.67;;
10461;SDS011;5278;42.656;23.374;2022-12-07T03:59:53;36.40;;;23.10;;
10461;SDS011;5278;42.656;23.374;2022-12-07T04:02:23;36.20;;;22.67;;
10461;SDS011;5278;42.656;23.374;2022-12-07T04:04:52;39.57;;;22.87;;
10461;SDS011;5278;42.656;23.374;2022-12-07T04:07:19;37.10;;;22.10;;
10461;SDS011;5278;42.656;23.374;2022-12-07T04:09:46;40.43;;;24.20;;
10461;SDS011;5278;42.656;23.374;2022-12-07T04:12:15;38.33;;;22.90;;
10461;SDS011;5278;42.656;23.374;2022-12-07T04:14:42;34.37;;;23.00;;
10461;SDS011;5278;42.656;23.374;2022-12-07T04:17:09;37.00;;;23.67;;
10461;SDS011;5278;42.656;23.374;2022-12-07T04:19:37;32.00;;;20.10;;
10461;SDS011;5278;42.656;23.374;2022-12-07T04:22:04;37.07;;;21.30;;
10461;SDS011;5278;42.656;23.374;2022-12-07T04:24:31;31.77;;;20.00;;
10461;SDS011;5278;42.656;23.374;2022-12-07T04:26:59;32.37;;;19.70;;
10461;SDS011;5278;42.656;23.374;2022-12-07T04:29:26;30.87;;;18.73;;
10461;SDS011;5278;42.656;23.374;2022-12-07T04:31:53;34.37;;;19.83;;
10461;SDS011;5278;42.656;23.374;2022-12-07T04:34:19;29.37;;;18.97;;
10461;SDS011;5278;42.656;23.374;2022-12-07T04:36:48;35.20;;;21.77;;
10461;SDS011;5278;42.656;23.374;2022-12-07T04:39:18;33.70;;;20.00;;
10461;SDS011;5278;42.656;23.374;2022-12-07T04:41:47;35.63;;;22.20;;
10461;SDS011;5278;42.656;23.374;2022-12-07T04:44:15;36.10;;;21.80;;
10461;SDS011;5278;42.656;23.374;2022-12-07T04:46:43;35.40;;;19.63;;
10461;SDS011;5278;42.656;23.374;2022-12-07T04:49:10;35.30;;;21.40;;
10461;SDS011;5278;42.656;23.374;2022-12-07T04:51:38;32.30;;;19.77;;
10461;SDS011;5278;42.656;23.374;2022-12-07T04:54:07;32.73;;;20.87;;
10461;SDS011;5278;42.656;23.374;2022-12-07T04:56:34;34.87;;;21.20;;
10461;SDS011;5278;42.656;23.374;2022-12-07T04:59:02;34.43;;;20.17;;
10461;SDS011;5278;42.656;23.374;2022-12-07T05:01:30;35.30;;;21.50;;
10461;SDS011;5278;42.656;23.374;2022-12-07T05:03:59;35.73;;;21.00;;
10461;SDS011;5278;42.656;23.374;2022-12-07T05:06:26;33.63;;;19.93;;
10461;SDS011;5278;42.656;23.374;2022-12-07T05:08:53;28.83;;;20.03;;
10461;SDS011;5278;42.656;23.374;2022-12-07T05:11:22;40.67;;;21.53;;
10461;SDS011;5278;42.656;23.374;2022-12-07T05:14:05;34.27;;;20.97;;
10461;SDS011;5278;42.656;23.374;2022-12-07T05:16:33;35.43;;;21.13;;
10461;SDS011;5278;42.656;23.374;2022-12-07T05:19:00;31.60;;;19.23;;
10461;SDS011;5278;42.656;23.374;2022-12-07T05:21:27;35.57;;;22.90;;
10461;SDS011;5278;42.656;23.374;2022-12-07T05:23:54;34.97;;;21.30;;
10461;SDS011;5278;42.656;23.374;2022-12-07T05:26:23;35.57;;;22.43;;
10461;SDS011;5278;42.656;23.374;2022-12-07T05:28:50;36.73;;;21.77;;
10461;SDS011;5278;42.656;23.374;2022-12-07T05:31:17;34.40;;;21.00;;
10461;SDS011;5278;42.656;23.374;2022-12-07T05:33:46;43.77;;;26.30;;
10461;SDS011;5278;42.656;23.374;2022-12-07T05:36:15;37.97;;;22.60;;
10461;SDS011;5278;42.656;23.374;2022-12-07T05:38:42;38.27;;;23.57;;
10461;SDS011;5278;42.656;23.374;2022-12-07T05:41:11;36.87;;;22.50;;
10461;SDS011;5278;42.656;23.374;2022-12-07T05:43:56;31.03;;;20.93;;
10461;SDS011;5278;42.656;23.374;2022-12-07T05:46:23;42.17;;;24.53;;
10461;SDS011;5278;42.656;23.374;2022-12-07T05:48:50;36.30;;;21.67;;
10461;SDS011;5278;42.656;23.374;2022-12-07T05:51:17;34.20;;;20.57;;
10461;SDS011;5278;42.656;23.374;2022-12-07T05:53:44;37.70;;;20.93;;
10461;SDS011;5278;42.656;23.374;2022-12-07T05:56:12;32.70;;;20.23;;
10461;SDS011;5278;42.656;23.374;2022-12-07T05:58:38;32.57;;;20.67;;
10461;SDS011;5278;42.656;23.374;2022-12-07T06:01:32;43.57;;;22.87;;
10461;SDS011;5278;42.656;23.374;2022-12-07T06:04:01;41.73;;;20.90;;
10461;SDS011;5278;42.656;23.374;2022-12-07T06:06:28;36.47;;;23.07;;
10461;SDS011;5278;42.656;23.374;2022-12-07T06:08:57;43.90;;;23.50;;
10461;SDS011;5278;42.656;23.374;2022-12-07T06:11:23;35.07;;;20.90;;
10461;SDS011;5278;42.656;23.374;2022-12-07T06:14:08;31.13;;;19.07;;
10461;SDS011;5278;42.656;23.374;2022-12-07T06:16:37;32.93;;;19.00;;
10461;SDS011;5278;42.656;23.374;2022-12-07T06:19:04;32.90;;;20.03;;
10461;SDS011;5278;42.656;23.374;2022-12-07T06:21:31;29.03;;;18.60;;
10461;SDS011;5278;42.656;23.374;2022-12-07T06:23:59;36.17;;;19.57;;
10461;SDS011;5278;42.656;23.374;2022-12-07T06:26:26;33.00;;;21.13;;
10461;SDS011;5278;42.656;23.374;2022-12-07T06:28:55;31.17;;;18.53;;
10461;SDS011;5278;42.656;23.374;2022-12-07T06:31:21;32.27;;;18.57;;
10461;SDS011;5278;42.656;23.374;2022-12-07T06:33:50;32.83;;;19.47;;
10461;SDS011;5278;42.656;23.374;2022-12-07T06:36:17;32.37;;;18.93;;
10461;SDS011;5278;42.656;23.374;2022-12-07T06:38:45;32.67;;;19.23;;
10461;SDS011;5278;42.656;23.374;2022-12-07T06:41:12;33.63;;;18.77;;
10461;SDS011;5278;42.656;23.374;2022-12-07T06:43:39;30.63;;;19.63;;
10461;SDS011;5278;42.656;23.374;2022-12-07T06:46:07;36.80;;;20.87;;
10461;SDS011;5278;42.656;23.374;2022-12-07T06:48:34;32.90;;;21.10;;
10461;SDS011;5278;42.656;23.374;2022-12-07T06:51:03;32.00;;;20.83;;
10461;SDS011;5278;42.656;23.374;2022-12-07T06:53:30;36.13;;;21.63;;
10461;SDS011;5278;42.656;23.374;2022-12-07T06:55:57;35.17;;;20.93;;
10461;SDS011;5278;42.656;23.374;2022-12-07T06:58:24;38.57;;;21.67;;
10461;SDS011;5278;42.656;23.374;2022-12-07T07:00:51;37.83;;;23.27;;
10461;SDS011;5278;42.656;23.374;2022-12-07T07:03:18;38.80;;;22.77;;
10461;SDS011;5278;42.656;23.374;2022-12-07T07:05:46;43.10;;;26.23;;
10461;SDS011;5278;42.656;23.374;2022-12-07T07:08:15;37.73;;;22.83;;
10461;SDS011;5278;42.656;23.374;2022-12-07T07:10:43;31.87;;;21.60;;
10461;SDS011;5278;42.656;23.374;2022-12-07T07:13:10;36.50;;;23.40;;
10461;SDS011;5278;42.656;23.374;2022-12-07T07:15:38;35.53;;;21.73;;
10461;SDS011;5278;42.656;23.374;2022-12-07T07:18:05;35.33;;;21.20;;
10461;SDS011;5278;42.656;23.374;2022-12-07T07:20:32;40.07;;;21.63;;
10461;SDS011;5278;42.656;23.374;2022-12-07T07:23:01;40.53;;;21.47;;
10461;SDS011;5278;42.656;23.374;2022-12-07T07:25:30;35.90;;;20.67;;
10461;SDS011;5278;42.656;23.374;2022-12-07T07:27:56;33.27;;;20.07;;
10461;SDS011;5278;42.656;23.374;2022-12-07T07:30:24;35.83;;;20.90;;
10461;SDS011;5278;42.656;23.374;2022-12-07T07:32:55;36.70;;;21.10;;
10461;SDS011;5278;42.656;23.374;2022-12-07T07:35:23;33.77;;;18.07;;
10461;SDS011;5278;42.656;23.374;2022-12-07T07:37:50;37.60;;;18.57;;
10461;SDS011;5278;42.656;23.374;2022-12-07T07:40:16;34.33;;;19.77;;
10461;SDS011;5278;42.656;23.374;2022-12-07T07:42:46;31.50;;;18.17;;
10461;SDS011;5278;42.656;23.374;2022-12-07T07:45:13;34.50;;;18.23;;
10461;SDS011;5278;42.656;23.374;2022-12-07T07:47:40;29.33;;;18.40;;
10461;SDS011;5278;42.656;23.374;2022-12-07T07:50:09;25.93;;;18.00;;
10461;SDS011;5278;42.656;23.374;2022-12-07T07:52:37;31.03;;;17.27;;
10461;SDS011;5278;42.656;23.374;2022-12-07T07:55:05;32.10;;;17.90;;
10461;SDS011;5278;42.656;23.374;2022-12-07T07:57:33;29.50;;;16.67;;
10461;SDS011;5278;42.656;23.374;2022-12-07T08:00:02;26.33;;;16.67;;
10461;SDS011;5278;42.656;23.374;2022-12-07T08:02:31;24.53;;;16.50;;
10461;SDS011;5278;42.656;23.374;2022-12-07T08:04:58;27.53;;;16.00;;
10461;SDS011;5278;42.656;23.374;2022-12-07T08:07:26;24.37;;;16.00;;
10461;SDS011;5278;42.656;23.374;2022-12-07T08:09:54;28.17;;;17.40;;
10461;SDS011;5278;42.656;23.374;2022-12-07T08:12:21;27.87;;;18.37;;
10461;SDS011;5278;42.656;23.374;2022-12-07T08:14:48;28.73;;;18.40;;
10461;SDS011;5278;42.656;23.374;2022-12-07T08:17:16;32.67;;;19.40;;
10461;SDS011;5278;42.656;23.374;2022-12-07T08:19:43;32.27;;;21.93;;
10461;SDS011;5278;42.656;23.374;2022-12-07T08:22:10;21.97;;;15.93;;
10461;SDS011;5278;42.656;23.374;2022-12-07T08:24:38;25.63;;;14.70;;
10461;SDS011;5278;42.656;23.374;2022-12-07T08:27:05;17.03;;;11.80;;
10461;SDS011;5278;42.656;23.374;2022-12-07T08:29:32;20.70;;;12.97;;
10461;SDS011;5278;42.656;23.374;2022-12-07T08:31:58;20.03;;;13.97;;
10461;SDS011;5278;42.656;23.374;2022-12-07T08:34:27;24.17;;;15.77;;
10461;SDS011;5278;42.656;23.374;2022-12-07T08:36:56;24.97;;;17.37;;
10461;SDS011;5278;42.656;23.374;2022-12-07T08:39:23;26.20;;;17.70;;
10461;SDS011;5278;42.656;23.374;2022-12-07T08:41:50;22.77;;;15.90;;
10461;SDS011;5278;42.656;23.374;2022-12-07T08:44:17;23.47;;;17.40;;
10461;SDS011;5278;42.656;23.374;2022-12-07T08:46:44;24.13;;;15.97;;
10461;SDS011;5278;42.656;23.374;2022-12-07T08:49:15;25.43;;;17.50;;
10461;SDS011;5278;42.656;23.374;2022-12-07T08:51:46;25.17;;;17.73;;
10461;SDS011;5278;42.656;23.374;2022-12-07T08:54:14;27.00;;;18.30;;
10461;SDS011;5278;42.656;23.374;2022-12-07T08:56:44;30.47;;;18.67;;
10461;SDS011;5278;42.656;23.374;2022-12-07T08:59:14;34.50;;;19.60;;
10461;SDS011;5278;42.656;23.374;2022-12-07T09:01:43;26.97;;;18.23;;
10461;SDS011;5278;42.656;23.374;2022-12-07T09:04:10;27.23;;;17.63;;
10461;SDS011;5278;42.656;23.374;2022-12-07T09:06:37;26.53;;;19.30;;
10461;SDS011;5278;42.656;23.374;2022-12-07T09:09:06;30.50;;;21.07;;
10461;SDS011;5278;42.656;23.374;2022-12-07T09:11:33;29.00;;;21.33;;
10461;SDS011;5278;42.656;23.374;2022-12-07T09:14:00;28.63;;;19.53;;
10461;SDS011;5278;42.656;23.374;2022-12-07T09:16:27;30.50;;;21.30;;
10461;SDS011;5278;42.656;23.374;2022-12-07T09:18:54;27.50;;;18.67;;
10461;SDS011;5278;42.656;23.374;2022-12-07T09:21:21;28.23;;;19.43;;
10461;SDS011;5278;42.656;23.374;2022-12-07T09:23:48;31.77;;;19.60;;
10461;SDS011;5278;42.656;23.374;2022-12-07T09:26:16;27.30;;;19.13;;
10461;SDS011;5278;42.656;23.374;2022-12-07T09:28:43;37.17;;;23.87;;
10461;SDS011;5278;42.656;23.374;2022-12-07T09:31:10;30.50;;;19.43;;
10461;SDS011;5278;42.656;23.374;2022-12-07T09:33:36;34.63;;;22.33;;
10461;SDS011;5278;42.656;23.374;2022-12-07T09:36:04;34.13;;;20.87;;
10461;SDS011;5278;42.656;23.374;2022-12-07T09:38:33;27.80;;;20.03;;
10461;SDS011;5278;42.656;23.374;2022-12-07T09:41:03;29.87;;;19.70;;
10461;SDS011;5278;42.656;23.374;2022-12-07T09:43:33;35.63;;;21.80;;
10461;SDS011;5278;42.656;23.374;2022-12-07T09:46:04;29.47;;;21.13;;
10461;SDS011;5278;42.656;23.374;2022-12-07T09:48:33;33.57;;;20.73;;
10461;SDS011;5278;42.656;23.374;2022-12-07T09:51:09;33.03;;;20.23;;
10461;SDS011;5278;42.656;23.374;2022-12-07T09:53:41;32.43;;;20.87;;
10461;SDS011;5278;42.656;23.374;2022-12-07T09:56:09;28.97;;;19.83;;
10461;SDS011;5278;42.656;23.374;2022-12-07T09:58:41;31.40;;;20.33;;
10461;SDS011;5278;42.656;23.374;2022-12-07T10:01:11;35.40;;;21.60;;
10461;SDS011;5278;42.656;23.374;2022-12-07T10:03:40;31.07;;;21.20;;
10461;SDS011;5278;42.656;23.374;2022-12-07T10:06:11;41.13;;;23.13;;
10461;SDS011;5278;42.656;23.374;2022-12-07T10:08:39;39.27;;;23.10;;
10461;SDS011;5278;42.656;23.374;2022-12-07T10:11:08;33.80;;;20.33;;
10461;SDS011;5278;42.656;23.374;2022-12-07T10:13:37;30.67;;;20.43;;
10461;SDS011;5278;42.656;23.374;2022-12-07T10:16:09;32.73;;;21.70;;
10461;SDS011;5278;42.656;23.374;2022-12-07T10:19:20;31.37;;;19.33;;
10461;SDS011;5278;42.656;23.374;2022-12-07T10:24:43;29.07;;;19.67;;
10461;SDS011;5278;42.656;23.374;2022-12-07T10:27:19;34.77;;;20.20;;
10461;SDS011;5278;42.656;23.374;2022-12-07T10:29:48;32.40;;;19.13;;
10461;SDS011;5278;42.656;23.374;2022-12-07T10:32:29;30.70;;;19.50;;
10461;SDS011;5278;42.656;23.374;2022-12-07T10:37:46;28.60;;;17.97;;
10461;SDS011;5278;42.656;23.374;2022-12-07T10:40:23;22.63;;;14.50;;
10461;SDS011;5278;42.656;23.374;2022-12-07T10:43:02;32.67;;;19.40;;
10461;SDS011;5278;42.656;23.374;2022-12-07T10:45:30;25.53;;;17.23;;
10461;SDS011;5278;42.656;23.374;2022-12-07T10:48:02;32.63;;;16.20;;
10461;SDS011;5278;42.656;23.374;2022-12-07T10:53:39;24.67;;;14.73;;
10461;SDS011;5278;42.656;23.374;2022-12-07T10:59:29;27.10;;;16.07;;
10461;SDS011;5278;42.656;23.374;2022-12-07T11:02:23;30.33;;;16.97;;
10461;SDS011;5278;42.656;23.374;2022-12-07T11:05:06;26.80;;;16.10;;
10461;SDS011;5278;42.656;23.374;2022-12-07T11:07:46;27.37;;;16.03;;
10461;SDS011;5278;42.656;23.374;2022-12-07T11:10:25;29.87;;;16.77;;
10461;SDS011;5278;42.656;23.374;2022-12-07T11:13:01;27.50;;;15.97;;
10461;SDS011;5278;42.656;23.374;2022-12-07T11:15:42;27.00;;;15.30;;
10461;SDS011;5278;42.656;23.374;2022-12-07T11:18:22;32.17;;;16.07;;
10461;SDS011;5278;42.656;23.374;2022-12-07T11:20:56;22.47;;;13.70;;
10461;SDS011;5278;42.656;23.374;2022-12-07T11:23:35;23.23;;;15.37;;
10461;SDS011;5278;42.656;23.374;2022-12-07T11:26:12;23.87;;;14.80;;
10461;SDS011;5278;42.656;23.374;2022-12-07T11:28:50;43.97;;;21.80;;
10461;SDS011;5278;42.656;23.374;2022-12-07T11:31:32;28.63;;;17.73;;
10461;SDS011;5278;42.656;23.374;2022-12-07T11:34:05;42.43;;;21.00;;
10461;SDS011;5278;42.656;23.374;2022-12-07T11:36:43;32.03;;;17.00;;
10461;SDS011;5278;42.656;23.374;2022-12-07T11:39:16;30.23;;;17.40;;
10461;SDS011;5278;42.656;23.374;2022-12-07T11:41:52;30.10;;;17.37;;
10461;SDS011;5278;42.656;23.374;2022-12-07T11:44:25;26.90;;;16.33;;
10461;SDS011;5278;42.656;23.374;2022-12-07T11:46:58;25.57;;;16.03;;
10461;SDS011;5278;42.656;23.374;2022-12-07T11:49:36;28.30;;;16.67;;
10461;SDS011;5278;42.656;23.374;2022-12-07T11:52:11;25.10;;;16.47;;
10461;SDS011;5278;42.656;23.374;2022-12-07T11:54:47;25.57;;;15.27;;
10461;SDS011;5278;42.656;23.374;2022-12-07T11:57:20;23.97;;;15.00;;
10461;SDS011;5278;42.656;23.374;2022-12-07T11:59:57;23.73;;;16.17;;
10461;SDS011;5278;42.656;23.374;2022-12-07T12:02:31;26.87;;;17.07;;
10461;SDS011;5278;42.656;23.374;2022-12-07T12:05:05;24.17;;;14.67;;
10461;SDS011;5278;42.656;23.374;2022-12-07T12:07:42;22.13;;;14.23;;
10461;SDS011;5278;42.656;23.374;2022-12-07T12:10:14;23.43;;;14.40;;
10461;SDS011;5278;42.656;23.374;2022-12-07T12:12:50;21.80;;;13.33;;
10461;SDS011;5278;42.656;23.374;2022-12-07T12:15:35;25.67;;;13.50;;
10461;SDS011;5278;42.656;23.374;2022-12-07T12:18:18;33.07;;;17.27;;
10461;SDS011;5278;42.656;23.374;2022-12-07T12:21:04;23.53;;;14.40;;
10461;SDS011;5278;42.656;23.374;2022-12-07T12:23:39;35.10;;;22.47;;
10461;SDS011;5278;42.656;23.374;2022-12-07T12:26:13;24.17;;;15.03;;
10461;SDS011;5278;42.656;23.374;2022-12-07T12:28:49;29.17;;;15.57;;
10461;SDS011;5278;42.656;23.374;2022-12-07T12:31:30;33.60;;;15.67;;
10461;SDS011;5278;42.656;23.374;2022-12-07T12:34:02;27.33;;;13.03;;
10461;SDS011;5278;42.656;23.374;2022-12-07T12:36:44;21.63;;;12.63;;
10461;SDS011;5278;42.656;23.374;2022-12-07T12:39:14;23.27;;;13.43;;
10461;SDS011;5278;42.656;23.374;2022-12-07T12:41:59;28.27;;;13.50;;
10461;SDS011;5278;42.656;23.374;2022-12-07T12:50:56;18.77;;;14.43;;
10461;SDS011;5278;42.656;23.374;2022-12-07T12:54:04;18.80;;;13.93;;
10461;SDS011;5278;42.656;23.374;2022-12-07T12:56:40;24.53;;;14.90;;
10461;SDS011;5278;42.656;23.374;2022-12-07T12:59:19;24.37;;;14.63;;
10461;SDS011;5278;42.656;23.374;2022-12-07T13:01:50;22.20;;;13.50;;
10461;SDS011;5278;42.656;23.374;2022-12-07T13:04:24;26.70;;;13.37;;
10461;SDS011;5278;42.656;23.374;2022-12-07T13:07:01;23.23;;;13.77;;
10461;SDS011;5278;42.656;23.374;2022-12-07T13:09:29;23.40;;;14.33;;
10461;SDS011;5278;42.656;23.374;2022-12-07T13:12:01;25.60;;;13.73;;
10461;SDS011;5278;42.656;23.374;2022-12-07T13:20:45;23.00;;;12.43;;
10461;SDS011;5278;42.656;23.374;2022-12-07T13:23:15;22.37;;;14.20;;
10461;SDS011;5278;42.656;23.374;2022-12-07T13:25:49;22.80;;;13.67;;
10461;SDS011;5278;42.656;23.374;2022-12-07T13:28:22;19.17;;;12.83;;
10461;SDS011;5278;42.656;23.374;2022-12-07T13:30:58;19.50;;;12.17;;
10461;SDS011;5278;42.656;23.374;2022-12-07T13:33:29;20.47;;;12.17;;
10461;SDS011;5278;42.656;23.374;2022-12-07T13:35:57;20.60;;;12.87;;
10461;SDS011;5278;42.656;23.374;2022-12-07T13:38:27;16.83;;;11.80;;
10461;SDS011;5278;42.656;23.374;2022-12-07T13:40:59;22.67;;;13.40;;
10461;SDS011;5278;42.656;23.374;2022-12-07T13:43:30;19.33;;;13.63;;
10461;SDS011;5278;42.656;23.374;2022-12-07T13:45:57;22.17;;;12.77;;
10461;SDS011;5278;42.656;23.374;2022-12-07T13:48:28;27.53;;;12.63;;
10461;SDS011;5278;42.656;23.374;2022-12-07T13:50:58;19.63;;;12.23;;
10461;SDS011;5278;42.656;23.374;2022-12-07T13:53:27;24.93;;;14.17;;
10461;SDS011;5278;42.656;23.374;2022-12-07T13:55:56;17.23;;;11.97;;
10461;SDS011;5278;42.656;23.374;2022-12-07T13:58:23;17.73;;;12.30;;
10461;SDS011;5278;42.656;23.374;2022-12-07T14:00:53;19.43;;;11.67;;
10461;SDS011;5278;42.656;23.374;2022-12-07T14:03:23;18.97;;;11.93;;
10461;SDS011;5278;42.656;23.374;2022-12-07T14:06:04;22.13;;;12.40;;
10461;SDS011;5278;42.656;23.374;2022-12-07T14:08:33;22.63;;;12.83;;
10461;SDS011;5278;42.656;23.374;2022-12-07T14:11:01;15.80;;;11.07;;
10461;SDS011;5278;42.656;23.374;2022-12-07T14:13:30;22.20;;;12.83;;
10461;SDS011;5278;42.656;23.374;2022-12-07T14:16:00;16.83;;;11.90;;
10461;SDS011;5278;42.656;23.374;2022-12-07T14:18:30;20.00;;;11.63;;
10461;SDS011;5278;42.656;23.374;2022-12-07T14:21:03;20.40;;;12.60;;
10461;SDS011;5278;42.656;23.374;2022-12-07T14:23:33;21.03;;;12.90;;
10461;SDS011;5278;42.656;23.374;2022-12-07T14:26:05;23.13;;;12.20;;
10461;SDS011;5278;42.656;23.374;2022-12-07T14:28:34;22.87;;;12.57;;
10461;SDS011;5278;42.656;23.374;2022-12-07T14:31:07;18.53;;;12.77;;
10461;SDS011;5278;42.656;23.374;2022-12-07T14:33:37;23.47;;;12.87;;
10461;SDS011;5278;42.656;23.374;2022-12-07T14:36:04;26.73;;;11.60;;
10461;SDS011;5278;42.656;23.374;2022-12-07T14:38:32;24.07;;;12.03;;
10461;SDS011;5278;42.656;23.374;2022-12-07T14:40:59;17.77;;;12.17;;
10461;SDS011;5278;42.656;23.374;2022-12-07T14:43:40;20.50;;;12.10;;
10461;SDS011;5278;42.656;23.374;2022-12-07T14:46:08;17.90;;;12.68;;
10461;SDS011;5278;42.656;23.374;2022-12-07T14:48:36;23.97;;;12.27;;
10461;SDS011;5278;42.656;23.374;2022-12-07T14:51:03;23.87;;;12.73;;
10461;SDS011;5278;42.656;23.374;2022-12-07T14:53:31;23.73;;;13.60;;
10461;SDS011;5278;42.656;23.374;2022-12-07T14:56:04;21.47;;;12.90;;
10461;SDS011;5278;42.656;23.374;2022-12-07T14:58:32;22.03;;;12.90;;
10461;SDS011;5278;42.656;23.374;2022-12-07T15:00:59;21.67;;;14.03;;
10461;SDS011;5278;42.656;23.374;2022-12-07T15:03:29;23.47;;;12.03;;
10461;SDS011;5278;42.656;23.374;2022-12-07T15:05:56;43.77;;;27.07;;